| time (UTC) | temp F | wind direction | speed knots | gust knots | rain 1hr in | rain 24hr in | rain mn in | humidity % | barometer mb |
| 20260506034525 | 62 | 284 | 0.0 | 1.7 | 0.00 | 0.10 | 0.00 | 47 | 1014.0 |
| 20260506033028 | 61 | 280 | 0.0 | 1.7 | 0.00 | 0.11 | 0.00 | 50 | 1013.8 |
| 20260506031516 | 60 | 283 | 0.0 | 0.0 | 0.00 | 0.11 | 0.00 | 54 | 1013.4 |
| 20260506030023 | 61 | 274 | 0.0 | 0.0 | 0.00 | 0.12 | 0.00 | 55 | 1013.3 |
| 20260506024504 | 62 | 291 | 0.0 | 0.0 | 0.00 | 0.12 | 0.00 | 52 | 1013.2 |
| 20260506023010 | 63 | 308 | 0.0 | 0.0 | 0.00 | 0.13 | 0.00 | 50 | 1013.1 |
| 20260506021532 | 65 | 301 | 0.0 | 3.5 | 0.00 | 0.15 | 0.00 | 48 | 1013.1 |
| 20260506020025 | 67 | 284 | 0.0 | 4.3 | 0.00 | 0.20 | 0.00 | 44 | 1012.8 |
| 20260506014504 | 68 | 204 | 0.0 | 3.5 | 0.00 | 0.32 | 0.00 | 44 | 1012.8 |
| 20260506013006 | 69 | 288 | 0.0 | 1.7 | 0.00 | 0.46 | 0.00 | 39 | 1012.7 |
| 20260506011510 | 70 | 276 | 0.0 | 1.7 | 0.00 | 0.52 | 0.00 | 36 | 1012.7 |
| 20260506010018 | 71 | 283 | 0.0 | 0.0 | 0.00 | 0.52 | 0.00 | 35 | 1012.5 |
| 20260506004527 | 68 | 291 | 0.0 | 0.0 | 0.00 | 0.52 | 0.00 | 37 | 1012.6 |
| 20260506003007 | 68 | 291 | 0.0 | 0.9 | 0.00 | 0.52 | 0.00 | 38 | 1012.6 |
| 20260506001510 | 69 | 342 | 0.0 | 0.0 | 0.00 | 0.52 | 0.00 | 35 | 1012.6 |
| 20260506000016 | 69 | 100 | 0.0 | 0.0 | 0.00 | 0.52 | 0.00 | 37 | 1012.6 |
| 20260505234518 | 67 | 271 | 0.0 | 0.0 | 0.00 | 0.52 | 0.00 | 39 | 1012.6 |
| 20260505233027 | 67 | 283 | 0.0 | 0.0 | 0.00 | 0.52 | 0.00 | 41 | 1012.8 |
| 20260505231507 | 67 | 128 | 0.0 | 0.0 | 0.00 | 0.52 | 0.00 | 41 | 1012.9 |
| 20260505230023 | 67 | 70 | 0.0 | 0.0 | 0.00 | 0.52 | 0.00 | 39 | 1012.9 |
| 20260505224518 | 68 | 190 | 0.0 | 0.0 | 0.00 | 0.52 | 0.00 | 41 | 1012.9 |
| 20260505223021 | 69 | 135 | 0.0 | 0.0 | 0.00 | 0.57 | 0.00 | 40 | 1013.0 |
| 20260505221526 | 69 | 257 | 0.0 | 0.0 | 0.00 | 0.60 | 0.00 | 40 | 1013.2 |
| 20260505220012 | 67 | 266 | 0.0 | 0.9 | 0.00 | 0.61 | 0.00 | 44 | 1013.4 |
| 20260505214516 | 67 | 239 | 0.0 | 0.0 | 0.00 | 0.66 | 0.00 | 43 | 1013.6 |
| 20260505213033 | 68 | 74 | 0.0 | 0.9 | 0.00 | 0.66 | 0.00 | 45 | 1013.6 |
| 20260505211526 | 66 | 122 | 0.0 | 0.0 | 0.00 | 0.66 | 0.00 | 45 | 1013.8 |
| 20260505210012 | 63 | 266 | 0.0 | 0.9 | 0.00 | 0.66 | 0.00 | 50 | 1013.8 |
| 20260505204516 | 64 | 259 | 0.0 | 0.0 | 0.00 | 0.66 | 0.00 | 51 | 1013.8 |
| 20260505203029 | 63 | 297 | 0.0 | 0.9 | 0.00 | 0.66 | 0.00 | 51 | 1014.0 |
| 20260505201531 | 62 | 248 | 0.0 | 0.0 | 0.00 | 0.66 | 0.00 | 52 | 1014.0 |
| 20260505200010 | 62 | 277 | 0.0 | 0.0 | 0.00 | 0.66 | 0.00 | 57 | 1014.0 |
| 20260505194512 | 60 | 276 | 0.0 | 0.9 | 0.00 | 0.66 | 0.00 | 62 | 1014.2 |
| 20260505193024 | 60 | 278 | 0.0 | 0.9 | 0.00 | 0.66 | 0.00 | 60 | 1014.2 |
| 20260505191521 | 58 | 243 | 0.0 | 0.9 | 0.00 | 0.66 | 0.00 | 63 | 1014.4 |
| 20260505190025 | 57 | 281 | 0.0 | 0.9 | 0.00 | 0.66 | 0.00 | 65 | 1014.5 |
| 20260505184510 | 56 | 263 | 0.0 | 0.9 | 0.00 | 0.66 | 0.00 | 66 | 1014.5 |
| 20260505183021 | 55 | 276 | 0.0 | 0.9 | 0.00 | 0.66 | 0.00 | 69 | 1014.5 |
| 20260505181522 | 54 | 290 | 0.0 | 1.7 | 0.00 | 0.66 | 0.00 | 69 | 1014.4 |
| 20260505180022 | 54 | 274 | 0.0 | 5.2 | 0.00 | 0.66 | 0.00 | 68 | 1014.3 |
| 20260505174530 | 55 | 271 | 0.0 | 1.7 | 0.00 | 0.66 | 0.00 | 67 | 1014.2 |
| 20260505173015 | 55 | 297 | 0.0 | 0.9 | 0.00 | 0.66 | 0.00 | 69 | 1014.1 |
| 20260505171520 | 54 | 267 | 0.0 | 4.3 | 0.00 | 0.66 | 0.00 | 72 | 1014.0 |
| 20260505170024 | 54 | 305 | 0.0 | 0.0 | 0.00 | 0.66 | 0.00 | 74 | 1014.0 |
| 20260505164527 | 51 | 263 | 0.0 | 0.9 | 0.00 | 0.66 | 0.00 | 77 | 1014.0 |
| 20260505163032 | 51 | 316 | 0.0 | 0.0 | 0.00 | 0.66 | 0.00 | 79 | 1013.9 |
| 20260505161517 | 49 | 315 | 0.0 | 0.0 | 0.00 | 0.66 | 0.00 | 82 | 1013.8 |
| 20260505153027 | 47 | 269 | 0.0 | 0.0 | 0.00 | 0.66 | 0.00 | 85 | 1013.3 |
| 20260505151527 | 46 | 323 | 0.0 | 0.0 | 0.00 | 0.66 | 0.00 | 85 | 1013.2 |
| 20260505124520 | 44 | 290 | 0.0 | 0.0 | 0.00 | 0.66 | 0.00 | 87 | 1011.7 |
| 20260505123024 | 44 | 277 | 0.0 | 0.9 | 0.00 | 0.66 | 0.00 | 87 | 1011.7 |
| 20260505121513 | 44 | 271 | 0.0 | 0.0 | 0.00 | 0.66 | 0.00 | 87 | 1011.8 |
| 20260505120014 | 44 | 280 | 0.0 | 0.0 | 0.00 | 0.66 | 0.00 | 87 | 1011.7 |
| 20260505114520 | 44 | 288 | 0.0 | 3.5 | 0.00 | 0.66 | 0.00 | 87 | 1011.6 |
| 20260505113022 | 44 | 280 | 0.0 | 4.3 | 0.00 | 0.66 | 0.00 | 87 | 1011.5 |
| 20260505111525 | 44 | 276 | 0.0 | 0.9 | 0.00 | 0.66 | 0.00 | 86 | 1011.6 |
| 20260505101521 | 44 | 274 | 0.0 | 0.0 | 0.00 | 0.66 | 0.00 | 85 | 1012.0 |
| 20260505100028 | 44 | 285 | 0.0 | 0.9 | 0.00 | 0.66 | 0.00 | 85 | 1012.0 |
| 20260505093028 | 43 | 312 | 0.0 | 0.9 | 0.00 | 0.66 | 0.00 | 88 | 1011.8 |
| 20260505091527 | 43 | 276 | 0.0 | 0.0 | 0.00 | 0.66 | 0.00 | 89 | 1012.1 |
| 20260505090026 | 43 | 278 | 0.0 | 1.7 | 0.00 | 0.66 | 0.00 | 88 | 1012.1 |
| 20260505084526 | 42 | 256 | 0.0 | 0.9 | 0.00 | 0.66 | 0.00 | 89 | 1012.6 |
| 20260505083014 | 42 | 260 | 0.0 | 0.0 | 0.00 | 0.66 | 0.00 | 90 | 1012.7 |
| 20260505081527 | 41 | 274 | 0.0 | 0.0 | 0.00 | 0.66 | 0.00 | 89 | 1012.7 |
| 20260505080026 | 42 | 291 | 0.0 | 0.9 | 0.00 | 0.66 | 0.00 | 87 | 1012.8 |
| 20260505074526 | 43 | 314 | 0.0 | 0.9 | 0.00 | 0.66 | 0.00 | 84 | 1012.8 |
| 20260505041512 | 44 | 267 | 0.9 | 7.0 | 0.05 | 0.60 | 0.60 | 89 | 1012.6 |
| 20260505040016 | 43 | 273 | 0.0 | 3.5 | 0.05 | 0.58 | 0.58 | 90 | 1012.4 |